Time;durP1;ratioP1;P1;durP2;ratioP2;P2;SDS_P1;SDS_P2;PMS_P1;PMS_P2;Temp;Humidity;BMP_temperature;BMP_pressure;BME280_temperature;BME280_humidity;BME280_pressure;Samples;Min_cycle;Max_cycle;Signal;HPM_P1;HPM_P2
2022/07/26 00:00:46;;;;;;;;;;;19.00;96.60;;;;;;5052060;28;19962;-74
2022/07/26 00:03:13;;;;;;;;;;;18.80;97.90;;;;;;5051247;28;19971;-74
2022/07/26 00:05:38;;;;;;;;;;;18.70;98.90;;;;;;5052617;28;19954;-74
2022/07/26 00:08:11;;;;;;;;;;;18.50;99.70;;;;;;5051722;28;20374;-74
2022/07/26 00:10:40;;;;;;;;;;;18.40;99.90;;;;;;5050972;28;20329;-74
2022/07/26 00:13:06;;;;;;;;;;;18.50;99.90;;;;;;5050928;28;19915;-73
2022/07/26 00:15:31;;;;;;;;;;;18.60;99.90;;;;;;5051784;28;19909;-74
2022/07/26 00:17:57;;;;;;;;;;;18.90;99.90;;;;;;5050861;28;19955;-74
2022/07/26 00:20:22;;;;;;;;;;;19.00;99.90;;;;;;5051831;28;19908;-73
2022/07/26 00:22:48;;;;;;;;;;;19.20;99.90;;;;;;5051254;28;19909;-74
2022/07/26 00:25:13;;;;;;;;;;;19.20;99.90;;;;;;5044483;28;19913;-74
2022/07/26 00:27:39;;;;;;;;;;;19.30;99.90;;;;;;5050062;28;19959;-74
2022/07/26 00:30:05;;;;;;;;;;;19.20;99.90;;;;;;5051604;28;19913;-74
2022/07/26 00:32:31;;;;;;;;;;;19.30;99.90;;;;;;5044402;28;19916;-74
2022/07/26 00:34:57;;;;;;;;;;;19.30;99.90;;;;;;5050972;28;19909;-74
2022/07/26 00:37:23;;;;;;;;;;;19.30;99.90;;;;;;5051451;28;19910;-73
2022/07/26 00:39:49;;;;;;;;;;;19.30;99.90;;;;;;5051339;28;19909;-73
2022/07/26 00:42:14;;;;;;;;;;;19.40;99.90;;;;;;5050852;28;19916;-72
2022/07/26 00:44:41;;;;;;;;;;;19.40;99.90;;;;;;5051156;28;19920;-73
2022/07/26 00:47:06;;;;;;;;;;;19.40;99.90;;;;;;5049930;28;19916;-74
2022/07/26 00:49:32;;;;;;;;;;;19.50;99.90;;;;;;5051398;28;20285;-74
2022/07/26 00:51:57;;;;;;;;;;;19.50;99.90;;;;;;5049796;28;19909;-74
2022/07/26 00:54:23;;;;;;;;;;;19.60;99.90;;;;;;5050881;28;19913;-73
2022/07/26 00:56:49;;;;;;;;;;;19.50;99.90;;;;;;5054835;28;19915;-74
2022/07/26 00:59:14;;;;;;;;;;;19.60;99.90;;;;;;5051453;28;19970;-74
2022/07/26 01:01:40;;;;;;;;;;;19.60;99.90;;;;;;5049302;28;19909;-74
2022/07/26 01:04:05;;;;;;;;;;;19.60;99.90;;;;;;5050377;28;20015;-73
2022/07/26 01:06:31;;;;;;;;;;;19.60;99.90;;;;;;5051278;28;19974;-73
2022/07/26 01:08:56;;;;;;;;;;;19.60;99.90;;;;;;5050779;28;19916;-74
2022/07/26 01:11:22;;;;;;;;;;;19.60;99.90;;;;;;5050499;28;19909;-74
2022/07/26 01:13:48;;;;;;;;;;;19.60;99.90;;;;;;5049380;28;19912;-74
2022/07/26 01:16:14;;;;;;;;;;;19.50;99.90;;;;;;5050805;28;19913;-74
2022/07/26 01:18:39;;;;;;;;;;;19.50;99.90;;;;;;5050932;28;20016;-73
2022/07/26 01:21:06;;;;;;;;;;;19.40;99.90;;;;;;5050981;28;19960;-74
2022/07/26 01:23:32;;;;;;;;;;;19.40;99.90;;;;;;5049084;28;19917;-74
2022/07/26 01:25:57;;;;;;;;;;;19.50;99.90;;;;;;5050983;28;20270;-74
2022/07/26 01:28:23;;;;;;;;;;;19.50;99.90;;;;;;5050764;28;20104;-74
2022/07/26 01:30:48;;;;;;;;;;;19.60;99.90;;;;;;5054227;28;19909;-74
2022/07/26 01:33:14;;;;;;;;;;;19.60;99.90;;;;;;5053792;28;20380;-73
2022/07/26 01:35:39;;;;;;;;;;;19.50;99.90;;;;;;5055312;28;19916;-75
2022/07/26 01:38:05;;;;;;;;;;;19.70;99.90;;;;;;5054944;28;20263;-75
2022/07/26 01:40:30;;;;;;;;;;;19.70;99.90;;;;;;5053564;28;19916;-75
2022/07/26 01:42:56;;;;;;;;;;;19.60;99.90;;;;;;5054267;28;19916;-75
2022/07/26 01:45:21;;;;;;;;;;;19.80;99.90;;;;;;5054287;28;19909;-75
2022/07/26 01:47:49;;;;;;;;;;;19.90;99.90;;;;;;5054332;28;19921;-75
2022/07/26 01:50:15;;;;;;;;;;;19.90;99.90;;;;;;5054695;28;19913;-75
2022/07/26 01:52:40;;;;;;;;;;;19.90;99.90;;;;;;5054039;28;19955;-75
2022/07/26 01:55:06;;;;;;;;;;;19.90;99.90;;;;;;5056613;28;19909;-75
2022/07/26 01:57:31;;;;;;;;;;;19.90;99.90;;;;;;5054385;28;19917;-75
2022/07/26 01:59:57;;;;;;;;;;;19.90;99.90;;;;;;5054255;28;19955;-75
2022/07/26 02:02:23;;;;;;;;;;;19.80;99.90;;;;;;5053609;28;19916;-75
2022/07/26 02:04:58;;;;;;;;;;;19.80;99.90;;;;;;5052328;28;19916;-75
2022/07/26 02:07:26;;;;;;;;;;;19.70;99.90;;;;;;5053999;28;19931;-75
2022/07/26 02:09:51;;;;;;;;;;;19.60;99.90;;;;;;5054036;28;20372;-75
2022/07/26 02:12:17;;;;;;;;;;;19.60;99.90;;;;;;5053658;28;19962;-75
2022/07/26 02:14:42;;;;;;;;;;;19.60;99.90;;;;;;5053631;28;19909;-75
2022/07/26 02:17:08;;;;;;;;;;;19.60;99.90;;;;;;5053774;28;20054;-74
2022/07/26 02:19:33;;;;;;;;;;;19.50;99.90;;;;;;5054070;28;20077;-74
2022/07/26 02:21:59;;;;;;;;;;;19.60;99.90;;;;;;5053334;28;19909;-74
2022/07/26 02:24:27;;;;;;;;;;;19.60;99.90;;;;;;5052021;28;19916;-75
2022/07/26 02:26:53;;;;;;;;;;;19.60;99.90;;;;;;5053671;28;20318;-75
2022/07/26 02:29:18;;;;;;;;;;;19.60;99.90;;;;;;5053753;28;20004;-75
2022/07/26 02:31:44;;;;;;;;;;;19.50;99.90;;;;;;5053306;28;19959;-75
2022/07/26 02:34:09;;;;;;;;;;;19.40;99.90;;;;;;5053223;28;19909;-75
2022/07/26 02:36:35;;;;;;;;;;;19.40;99.90;;;;;;5053640;28;20294;-75
2022/07/26 02:39:00;;;;;;;;;;;19.40;99.90;;;;;;5053393;28;19964;-75
2022/07/26 02:41:26;;;;;;;;;;;19.40;99.90;;;;;;5052921;28;20365;-74
2022/07/26 02:43:51;;;;;;;;;;;19.40;99.90;;;;;;5052667;28;19917;-75
2022/07/26 02:46:17;;;;;;;;;;;19.40;99.90;;;;;;5053296;28;20274;-75
2022/07/26 02:48:42;;;;;;;;;;;19.40;99.90;;;;;;5053362;28;19912;-75
2022/07/26 02:51:08;;;;;;;;;;;19.40;99.90;;;;;;5053437;28;19920;-75
2022/07/26 02:53:33;;;;;;;;;;;19.40;99.90;;;;;;5051745;28;19948;-75
2022/07/26 02:55:59;;;;;;;;;;;19.40;99.90;;;;;;5059674;28;19912;-75
2022/07/26 02:58:25;;;;;;;;;;;19.30;99.90;;;;;;5053173;28;19909;-75
2022/07/26 03:00:51;;;;;;;;;;;19.40;99.90;;;;;;5053282;28;19909;-75
2022/07/26 03:03:17;;;;;;;;;;;19.30;99.90;;;;;;5051846;28;20038;-75
2022/07/26 03:05:43;;;;;;;;;;;19.30;99.90;;;;;;5053031;28;19908;-75
2022/07/26 03:08:08;;;;;;;;;;;19.30;99.90;;;;;;5048681;28;19947;-75
2022/07/26 03:10:34;;;;;;;;;;;19.30;99.90;;;;;;5052676;28;20023;-75
2022/07/26 03:12:59;;;;;;;;;;;19.30;99.90;;;;;;5052462;28;19909;-75
2022/07/26 03:15:25;;;;;;;;;;;19.40;99.90;;;;;;5052554;28;19909;-75
2022/07/26 03:17:50;;;;;;;;;;;19.40;99.90;;;;;;5052533;28;19909;-75
2022/07/26 03:20:16;;;;;;;;;;;19.30;99.90;;;;;;5052802;28;20321;-75
2022/07/26 03:22:41;;;;;;;;;;;19.30;99.90;;;;;;5050943;28;19944;-75
2022/07/26 03:25:07;;;;;;;;;;;19.30;99.90;;;;;;5055589;28;19909;-75
2022/07/26 03:27:33;;;;;;;;;;;19.30;99.90;;;;;;5054018;28;20448;-75
2022/07/26 03:29:59;;;;;;;;;;;19.20;99.90;;;;;;5052844;28;19909;-75
2022/07/26 03:32:24;;;;;;;;;;;19.20;99.90;;;;;;5052002;28;19916;-75
2022/07/26 03:34:50;;;;;;;;;;;19.20;99.90;;;;;;5052085;28;20060;-75
2022/07/26 03:37:16;;;;;;;;;;;19.20;99.90;;;;;;5052466;28;19909;-75
2022/07/26 03:39:41;;;;;;;;;;;19.20;99.90;;;;;;5053130;28;20325;-75
2022/07/26 03:42:07;;;;;;;;;;;19.10;99.90;;;;;;5050690;28;20338;-75
2022/07/26 03:44:32;;;;;;;;;;;19.10;99.90;;;;;;5051906;28;20004;-74
2022/07/26 03:46:58;;;;;;;;;;;19.00;99.90;;;;;;5052138;28;19954;-75
2022/07/26 03:49:24;;;;;;;;;;;18.90;99.90;;;;;;5052082;28;19924;-75
2022/07/26 03:51:49;;;;;;;;;;;18.80;99.90;;;;;;5051147;28;20000;-75
2022/07/26 03:54:15;;;;;;;;;;;18.60;99.90;;;;;;5052240;28;19920;-75
2022/07/26 03:56:40;;;;;;;;;;;18.70;99.90;;;;;;5060645;28;19916;-75
2022/07/26 03:59:07;;;;;;;;;;;18.50;99.90;;;;;;5052097;28;20350;-75
2022/07/26 04:01:33;;;;;;;;;;;18.40;99.90;;;;;;5050190;28;19942;-75
2022/07/26 04:04:00;;;;;;;;;;;18.20;99.90;;;;;;5051476;28;20429;-75
2022/07/26 04:06:26;;;;;;;;;;;18.00;99.90;;;;;;5048823;28;20369;-75
2022/07/26 04:08:52;;;;;;;;;;;17.80;99.90;;;;;;5051816;28;19974;-75
2022/07/26 04:11:17;;;;;;;;;;;17.70;99.90;;;;;;5050217;28;20385;-75
2022/07/26 04:13:43;;;;;;;;;;;17.60;99.90;;;;;;5051427;28;20009;-75
2022/07/26 04:16:08;;;;;;;;;;;17.80;99.90;;;;;;5051980;28;19909;-75
2022/07/26 04:18:34;;;;;;;;;;;17.80;99.90;;;;;;5051555;28;19912;-75
2022/07/26 04:20:59;;;;;;;;;;;17.70;99.90;;;;;;5051736;28;19944;-75
2022/07/26 04:23:25;;;;;;;;;;;17.60;99.90;;;;;;5049807;28;19916;-75
2022/07/26 04:25:50;;;;;;;;;;;17.50;99.90;;;;;;5050007;28;20437;-75
2022/07/26 04:28:16;;;;;;;;;;;17.40;99.90;;;;;;5053488;28;20358;-75
2022/07/26 04:30:41;;;;;;;;;;;17.30;99.90;;;;;;5054470;28;19959;-75
2022/07/26 04:33:07;;;;;;;;;;;17.20;99.90;;;;;;5052664;28;19908;-76
2022/07/26 04:35:33;;;;;;;;;;;17.20;99.90;;;;;;5053689;28;19909;-75
2022/07/26 04:37:59;;;;;;;;;;;17.20;99.90;;;;;;5052458;28;19927;-74
2022/07/26 04:40:27;;;;;;;;;;;17.40;99.90;;;;;;5052875;28;20008;-74
2022/07/26 04:42:53;;;;;;;;;;;17.60;99.90;;;;;;5052946;28;19909;-74
2022/07/26 04:45:19;;;;;;;;;;;17.60;99.90;;;;;;5054720;28;19909;-74
2022/07/26 04:47:46;;;;;;;;;;;17.70;99.90;;;;;;5052050;28;19913;-75
2022/07/26 04:50:11;;;;;;;;;;;17.70;99.90;;;;;;5052898;28;20382;-74
2022/07/26 04:52:38;;;;;;;;;;;17.60;99.90;;;;;;5053268;28;19913;-74
2022/07/26 04:55:07;;;;;;;;;;;17.80;99.90;;;;;;5051500;28;19909;-75
2022/07/26 04:57:32;;;;;;;;;;;18.00;99.90;;;;;;5052072;28;19908;-74
2022/07/26 04:59:58;;;;;;;;;;;18.20;99.90;;;;;;5052957;28;20474;-75
2022/07/26 05:02:23;;;;;;;;;;;18.30;99.90;;;;;;5050430;28;19913;-75
2022/07/26 05:04:49;;;;;;;;;;;18.40;99.90;;;;;;5053043;28;19935;-75
2022/07/26 05:07:14;;;;;;;;;;;18.50;99.90;;;;;;5052845;28;19962;-75
2022/07/26 05:09:40;;;;;;;;;;;18.50;99.90;;;;;;5053158;28;19913;-75
2022/07/26 05:12:06;;;;;;;;;;;18.50;99.90;;;;;;5052548;28;19916;-75
2022/07/26 05:14:31;;;;;;;;;;;18.50;99.90;;;;;;5053004;28;19920;-75
2022/07/26 05:16:57;;;;;;;;;;;18.50;99.90;;;;;;5053309;28;20389;-75
2022/07/26 05:19:22;;;;;;;;;;;18.50;99.90;;;;;;5052804;28;19912;-75
2022/07/26 05:21:48;;;;;;;;;;;18.60;99.90;;;;;;5052514;28;19955;-75
2022/07/26 05:24:13;;;;;;;;;;;18.70;99.90;;;;;;5052064;28;19913;-75
2022/07/26 05:26:39;;;;;;;;;;;18.80;99.90;;;;;;5057745;28;19909;-75
2022/07/26 05:29:04;;;;;;;;;;;18.80;99.90;;;;;;5053722;28;19917;-73
2022/07/26 05:31:30;;;;;;;;;;;18.90;99.90;;;;;;5052159;28;19909;-75
2022/07/26 05:33:55;;;;;;;;;;;19.00;99.90;;;;;;5052303;28;20000;-76
2022/07/26 05:36:21;;;;;;;;;;;19.00;99.90;;;;;;5053312;28;20271;-76
2022/07/26 05:38:47;;;;;;;;;;;19.00;99.90;;;;;;5052408;28;19908;-75
2022/07/26 05:41:12;;;;;;;;;;;19.00;99.90;;;;;;5052505;28;20366;-74
2022/07/26 05:43:38;;;;;;;;;;;19.00;99.90;;;;;;5052240;28;19952;-75
2022/07/26 05:46:03;;;;;;;;;;;18.90;99.90;;;;;;5051236;28;19957;-75
2022/07/26 05:48:29;;;;;;;;;;;18.80;99.90;;;;;;5050521;28;19916;-75
2022/07/26 05:50:54;;;;;;;;;;;18.60;99.90;;;;;;5049488;28;19967;-75
2022/07/26 05:53:20;;;;;;;;;;;18.50;99.90;;;;;;5048922;28;19940;-75
2022/07/26 05:55:45;;;;;;;;;;;19.10;99.90;;;;;;5052535;28;19908;-74
2022/07/26 05:58:11;;;;;;;;;;;19.20;99.90;;;;;;5050384;28;19955;-75
2022/07/26 06:00:36;;;;;;;;;;;19.00;99.90;;;;;;5049160;28;19937;-75
2022/07/26 06:03:20;;;;;;;;;;;19.00;99.90;;;;;;5049450;28;19983;-75
2022/07/26 06:05:50;;;;;;;;;;;19.10;99.90;;;;;;5044547;28;19944;-75
2022/07/26 06:08:16;;;;;;;;;;;19.20;99.90;;;;;;5050331;28;19924;-75
2022/07/26 06:10:41;;;;;;;;;;;19.10;99.90;;;;;;5050561;28;20334;-75
2022/07/26 06:13:07;;;;;;;;;;;19.20;99.90;;;;;;5049970;28;19916;-74
2022/07/26 06:15:32;;;;;;;;;;;19.20;99.90;;;;;;5044618;28;19963;-74
2022/07/26 06:17:58;;;;;;;;;;;19.20;99.90;;;;;;5053277;28;20380;-74
2022/07/26 06:20:23;;;;;;;;;;;19.30;99.90;;;;;;5053948;28;19913;-74
2022/07/26 06:22:50;;;;;;;;;;;19.20;99.90;;;;;;5053501;28;19909;-75
2022/07/26 06:25:16;;;;;;;;;;;19.30;99.90;;;;;;5054954;28;19909;-75
2022/07/26 06:27:41;;;;;;;;;;;19.80;99.90;;;;;;5053598;28;19932;-75
2022/07/26 06:30:07;;;;;;;;;;;20.70;99.90;;;;;;5052624;28;19991;-76
2022/07/26 06:32:32;;;;;;;;;;;21.20;99.90;;;;;;5053249;28;20288;-75
2022/07/26 06:34:58;;;;;;;;;;;21.10;99.90;;;;;;5052137;28;19909;-75
2022/07/26 06:37:23;;;;;;;;;;;20.50;99.90;;;;;;5053885;28;20460;-76
2022/07/26 06:39:49;;;;;;;;;;;20.30;99.90;;;;;;5053690;28;19909;-76
2022/07/26 06:42:14;;;;;;;;;;;20.30;99.90;;;;;;5053200;28;19908;-76
2022/07/26 06:44:40;;;;;;;;;;;20.30;99.90;;;;;;5053079;28;19962;-76
2022/07/26 06:47:05;;;;;;;;;;;20.30;99.90;;;;;;5052645;28;19939;-76
2022/07/26 06:49:31;;;;;;;;;;;20.30;99.90;;;;;;5049647;28;19917;-75
2022/07/26 06:51:56;;;;;;;;;;;20.30;99.90;;;;;;5053149;28;20099;-74
2022/07/26 06:54:22;;;;;;;;;;;20.20;99.90;;;;;;5050672;28;19909;-74
2022/07/26 06:56:48;;;;;;;;;;;20.10;99.90;;;;;;5058768;28;20251;-75
2022/07/26 06:59:13;;;;;;;;;;;20.10;99.90;;;;;;5051961;28;20178;-75
2022/07/26 07:01:39;;;;;;;;;;;20.30;99.90;;;;;;5052297;28;19908;-75
2022/07/26 07:04:04;;;;;;;;;;;20.60;99.90;;;;;;5051073;28;19924;-75
2022/07/26 07:06:30;;;;;;;;;;;21.00;99.90;;;;;;5053179;28;19916;-75
2022/07/26 07:08:55;;;;;;;;;;;22.30;99.90;;;;;;5049117;28;20281;-75
2022/07/26 07:11:21;;;;;;;;;;;22.70;99.90;;;;;;5055615;28;19966;-75
2022/07/26 07:13:46;;;;;;;;;;;23.20;99.90;;;;;;5052493;28;20000;-75
2022/07/26 07:16:12;;;;;;;;;;;24.20;96.90;;;;;;5052159;28;19908;-75
2022/07/26 07:18:37;;;;;;;;;;;23.60;96.50;;;;;;5049471;28;20026;-75
2022/07/26 07:21:03;;;;;;;;;;;23.00;96.50;;;;;;5052655;28;19913;-75
2022/07/26 07:23:28;;;;;;;;;;;22.70;98.70;;;;;;5049969;28;20374;-75
2022/07/26 07:25:54;;;;;;;;;;;24.40;95.80;;;;;;5054708;28;19924;-75
2022/07/26 07:28:19;;;;;;;;;;;24.90;93.30;;;;;;5052489;28;19999;-75
2022/07/26 07:30:46;;;;;;;;;;;25.00;91.80;;;;;;5048388;28;20282;-76
2022/07/26 07:33:12;;;;;;;;;;;24.40;92.90;;;;;;5050676;28;19909;-75
2022/07/26 07:35:39;;;;;;;;;;;23.20;93.30;;;;;;5052246;28;20003;-75
2022/07/26 07:38:04;;;;;;;;;;;22.80;93.40;;;;;;5050206;28;19913;-75
2022/07/26 07:40:30;;;;;;;;;;;22.20;94.30;;;;;;5051810;28;20359;-75
2022/07/26 07:42:56;;;;;;;;;;;23.20;93.20;;;;;;5051796;28;20019;-75
2022/07/26 07:45:21;;;;;;;;;;;24.70;89.00;;;;;;5049978;28;20281;-75
2022/07/26 07:47:47;;;;;;;;;;;25.90;86.50;;;;;;5051424;28;19932;-76
2022/07/26 07:50:13;;;;;;;;;;;26.80;82.20;;;;;;5049055;28;19931;-76
2022/07/26 07:52:38;;;;;;;;;;;26.30;81.60;;;;;;5051589;28;20293;-75
2022/07/26 07:55:04;;;;;;;;;;;25.90;81.10;;;;;;5057501;28;20393;-75
2022/07/26 07:57:29;;;;;;;;;;;26.70;79.00;;;;;;5054922;28;19962;-76
2022/07/26 07:59:55;;;;;;;;;;;27.10;77.50;;;;;;5050934;28;19915;-76
2022/07/26 08:02:20;;;;;;;;;;;27.10;76.00;;;;;;5049157;28;20317;-76
2022/07/26 08:04:46;;;;;;;;;;;27.10;72.40;;;;;;5051063;28;19916;-76
2022/07/26 08:07:11;;;;;;;;;;;27.50;76.80;;;;;;5051564;28;19909;-76
2022/07/26 08:09:37;;;;;;;;;;;27.60;74.30;;;;;;5051326;28;19913;-76
2022/07/26 08:12:03;;;;;;;;;;;27.60;73.10;;;;;;5049651;28;19916;-76
2022/07/26 08:14:28;;;;;;;;;;;28.80;69.00;;;;;;5050597;28;19909;-76
2022/07/26 08:16:54;;;;;;;;;;;28.40;69.50;;;;;;5050494;28;19913;-76
2022/07/26 08:19:19;;;;;;;;;;;28.10;66.90;;;;;;5050560;28;19909;-76
2022/07/26 08:21:45;;;;;;;;;;;27.00;73.50;;;;;;5050945;28;19908;-75
2022/07/26 08:24:11;;;;;;;;;;;25.80;74.40;;;;;;5050032;28;19908;-76
2022/07/26 08:26:36;;;;;;;;;;;24.70;77.20;;;;;;5055233;28;19909;-76
2022/07/26 08:29:02;;;;;;;;;;;23.90;79.70;;;;;;5053110;28;19935;-76
2022/07/26 08:31:28;;;;;;;;;;;24.30;78.10;;;;;;5049256;28;19962;-76
2022/07/26 08:33:53;;;;;;;;;;;23.80;80.10;;;;;;5052454;28;19916;-76
2022/07/26 08:36:19;;;;;;;;;;;24.10;78.50;;;;;;5050302;28;20210;-76
2022/07/26 08:38:44;;;;;;;;;;;24.80;81.50;;;;;;5050407;28;19967;-76
2022/07/26 08:41:10;;;;;;;;;;;25.10;75.20;;;;;;5050649;28;19915;-76
2022/07/26 08:43:35;;;;;;;;;;;24.50;80.10;;;;;;5049652;28;19924;-76
2022/07/26 08:46:01;;;;;;;;;;;24.50;79.60;;;;;;5050801;28;20358;-76
2022/07/26 08:48:27;;;;;;;;;;;25.40;77.90;;;;;;5049479;28;20456;-76
2022/07/26 08:50:54;;;;;;;;;;;25.20;73.70;;;;;;5050660;28;19934;-76
2022/07/26 08:53:20;;;;;;;;;;;26.90;75.00;;;;;;5048926;28;19909;-76
2022/07/26 08:55:45;;;;;;;;;;;26.20;72.00;;;;;;5053928;28;19909;-76
2022/07/26 08:58:11;;;;;;;;;;;24.60;77.10;;;;;;5050338;28;19909;-76
2022/07/26 09:00:36;;;;;;;;;;;24.00;77.00;;;;;;5050435;28;20293;-76
2022/07/26 09:03:02;;;;;;;;;;;24.00;81.90;;;;;;5050048;28;20294;-76
2022/07/26 09:05:29;;;;;;;;;;;23.80;79.50;;;;;;5050328;28;19909;-76
2022/07/26 09:07:55;;;;;;;;;;;23.30;84.60;;;;;;5050019;28;20328;-76
2022/07/26 09:10:20;;;;;;;;;;;24.30;83.50;;;;;;5050540;28;19947;-76
2022/07/26 09:12:51;;;;;;;;;;;26.60;74.60;;;;;;5049435;28;19966;-76
2022/07/26 09:15:18;;;;;;;;;;;26.50;69.40;;;;;;5049977;28;19908;-76
2022/07/26 09:17:45;;;;;;;;;;;26.30;73.50;;;;;;5050138;28;20416;-76
2022/07/26 09:20:13;;;;;;;;;;;26.60;73.90;;;;;;5050470;28;19963;-76
2022/07/26 09:22:54;;;;;;;;;;;27.70;72.90;;;;;;5049769;28;19909;-76
2022/07/26 09:25:21;;;;;;;;;;;30.10;66.30;;;;;;5049219;28;19920;-76
2022/07/26 09:27:46;;;;;;;;;;;28.80;63.80;;;;;;5046819;28;19909;-76
2022/07/26 09:30:12;;;;;;;;;;;27.40;67.20;;;;;;5056399;28;19916;-76
2022/07/26 09:32:37;;;;;;;;;;;28.20;67.40;;;;;;5049746;28;19915;-76
2022/07/26 09:35:10;;;;;;;;;;;28.00;68.80;;;;;;5050359;28;19978;-76
2022/07/26 09:37:37;;;;;;;;;;;26.80;68.60;;;;;;5050481;28;19908;-76
2022/07/26 09:40:04;;;;;;;;;;;26.80;68.40;;;;;;5050101;28;19916;-76
2022/07/26 09:42:30;;;;;;;;;;;26.90;70.50;;;;;;5049728;28;19908;-76
2022/07/26 09:44:56;;;;;;;;;;;25.10;71.10;;;;;;5047209;28;19952;-76
2022/07/26 09:47:22;;;;;;;;;;;25.10;77.60;;;;;;5050563;28;19916;-76
2022/07/26 09:49:47;;;;;;;;;;;26.30;71.20;;;;;;5049919;28;19913;-76
2022/07/26 09:52:14;;;;;;;;;;;25.70;71.50;;;;;;5052624;28;19909;-76
2022/07/26 09:54:40;;;;;;;;;;;25.00;73.50;;;;;;5053628;28;20328;-76
2022/07/26 09:57:05;;;;;;;;;;;25.60;75.90;;;;;;5053768;28;19924;-76
2022/07/26 09:59:31;;;;;;;;;;;27.50;70.80;;;;;;5053781;28;19917;-76
2022/07/26 10:01:57;;;;;;;;;;;27.90;68.10;;;;;;5046934;28;20451;-76
2022/07/26 10:04:24;;;;;;;;;;;29.20;67.30;;;;;;5053974;28;19909;-76
2022/07/26 10:06:49;;;;;;;;;;;28.80;64.80;;;;;;5053843;28;19954;-76
2022/07/26 10:09:17;;;;;;;;;;;28.60;67.20;;;;;;5053612;28;19921;-76
2022/07/26 10:11:54;;;;;;;;;;;28.60;64.60;;;;;;5052504;28;19913;-76
2022/07/26 10:14:31;;;;;;;;;;;26.90;67.40;;;;;;5053599;28;19913;-76
2022/07/26 10:16:57;;;;;;;;;;;25.80;68.20;;;;;;5053664;28;20387;-75
2022/07/26 10:19:39;;;;;;;;;;;24.60;72.60;;;;;;5052739;28;19935;-76
2022/07/26 10:22:23;;;;;;;;;;;24.30;73.40;;;;;;5046616;28;20378;-76
2022/07/26 10:24:49;;;;;;;;;;;24.50;74.40;;;;;;5056606;28;20273;-76
2022/07/26 10:27:50;;;;;;;;;;;27.60;67.30;;;;;;5051983;28;19913;-76
2022/07/26 10:30:18;;;;;;;;;;;28.80;69.80;;;;;;5057643;28;20385;-76
2022/07/26 10:32:50;;;;;;;;;;;28.60;63.80;;;;;;5050025;28;19915;-76
2022/07/26 10:35:35;;;;;;;;;;;28.70;64.10;;;;;;5053099;28;20366;-76
2022/07/26 10:38:02;;;;;;;;;;;28.60;62.90;;;;;;5052836;28;20066;-76
2022/07/26 10:40:30;;;;;;;;;;;29.50;64.10;;;;;;5053230;28;19954;-76
2022/07/26 10:43:25;;;;;;;;;;;29.70;61.80;;;;;;5050906;28;19916;-76
2022/07/26 10:46:09;;;;;;;;;;;29.60;64.70;;;;;;5051573;28;20143;-76
2022/07/26 10:48:53;;;;;;;;;;;29.50;62.90;;;;;;5052212;28;19971;-76
2022/07/26 10:51:31;;;;;;;;;;;28.10;61.90;;;;;;5052661;28;20397;-76
2022/07/26 10:54:16;;;;;;;;;;;28.90;67.50;;;;;;5045215;28;19958;-76
2022/07/26 10:56:41;;;;;;;;;;;29.50;60.30;;;;;;5057698;28;19909;-76
2022/07/26 10:59:07;;;;;;;;;;;29.20;61.40;;;;;;5052503;28;19908;-76
2022/07/26 11:01:37;;;;;;;;;;;28.40;59.30;;;;;;5050681;28;20425;-76
2022/07/26 11:04:03;;;;;;;;;;;28.10;63.70;;;;;;5052566;28;19909;-76
2022/07/26 11:06:31;;;;;;;;;;;27.90;62.10;;;;;;5057157;28;19908;-76
2022/07/26 11:08:57;;;;;;;;;;;28.40;60.10;;;;;;5052270;28;19924;-76
2022/07/26 11:11:26;;;;;;;;;;;28.20;62.60;;;;;;5052491;28;19909;-76
2022/07/26 11:14:02;;;;;;;;;;;29.00;64.20;;;;;;5051952;28;19917;-76
2022/07/26 11:16:34;;;;;;;;;;;30.30;59.70;;;;;;5052904;28;19924;-76
2022/07/26 11:19:10;;;;;;;;;;;29.50;57.20;;;;;;5051882;28;19916;-76
2022/07/26 11:21:35;;;;;;;;;;;29.10;61.50;;;;;;5052023;28;19913;-76
2022/07/26 11:24:02;;;;;;;;;;;29.70;61.50;;;;;;5050594;28;20054;-76
2022/07/26 11:26:30;;;;;;;;;;;28.50;59.40;;;;;;5052470;28;19916;-76
2022/07/26 11:29:00;;;;;;;;;;;28.70;59.90;;;;;;5048580;28;20365;-75
2022/07/26 11:31:36;;;;;;;;;;;29.40;60.20;;;;;;5052706;28;20046;-75
2022/07/26 11:34:02;;;;;;;;;;;28.30;59.60;;;;;;5044327;28;20557;-74
2022/07/26 11:36:35;;;;;;;;;;;29.90;61.00;;;;;;5052083;28;19908;-75
2022/07/26 11:39:02;;;;;;;;;;;30.10;57.60;;;;;;5051614;28;19952;-75
2022/07/26 11:41:29;;;;;;;;;;;28.90;58.10;;;;;;5051762;28;19991;-77
2022/07/26 11:43:55;;;;;;;;;;;28.50;58.70;;;;;;5049796;28;19913;-74
2022/07/26 11:46:22;;;;;;;;;;;27.60;63.40;;;;;;5051889;28;19954;-75
2022/07/26 11:48:48;;;;;;;;;;;26.60;63.80;;;;;;5051328;28;19927;-75
2022/07/26 11:51:21;;;;;;;;;;;25.90;65.40;;;;;;5043028;28;20285;-75
2022/07/26 11:53:47;;;;;;;;;;;25.50;67.30;;;;;;5044864;28;19909;-73
2022/07/26 11:56:17;;;;;;;;;;;25.60;66.90;;;;;;5053761;28;19997;-73
2022/07/26 11:58:45;;;;;;;;;;;27.60;65.30;;;;;;5051372;28;20290;-75
2022/07/26 12:01:11;;;;;;;;;;;27.20;60.50;;;;;;5049281;28;20310;-76
2022/07/26 12:03:37;;;;;;;;;;;26.00;63.80;;;;;;5053913;28;19913;-75
2022/07/26 12:06:04;;;;;;;;;;;28.30;63.40;;;;;;5051381;28;19912;-75
2022/07/26 12:08:44;;;;;;;;;;;27.50;63.20;;;;;;5051130;28;19916;-75
2022/07/26 12:11:10;;;;;;;;;;;27.60;63.50;;;;;;5051911;28;19915;-75
2022/07/26 12:13:57;;;;;;;;;;;26.90;65.00;;;;;;5049518;28;20277;-75
2022/07/26 12:16:37;;;;;;;;;;;25.90;62.70;;;;;;5050230;28;19909;-73
2022/07/26 12:19:03;;;;;;;;;;;25.60;64.00;;;;;;5051086;28;19909;-76
2022/07/26 12:21:42;;;;;;;;;;;27.20;63.40;;;;;;5051194;28;20027;-74
2022/07/26 12:24:09;;;;;;;;;;;28.10;63.00;;;;;;5050459;28;19915;-75
2022/07/26 12:26:35;;;;;;;;;;;26.70;63.30;;;;;;5053498;28;19913;-75
2022/07/26 12:29:23;;;;;;;;;;;26.50;61.30;;;;;;5046824;28;19920;-76
2022/07/26 12:31:58;;;;;;;;;;;26.40;61.40;;;;;;5047683;28;19916;-75
2022/07/26 12:34:24;;;;;;;;;;;29.40;62.10;;;;;;5048677;28;19915;-76
2022/07/26 12:36:50;;;;;;;;;;;29.60;56.30;;;;;;5051052;28;20003;-74
2022/07/26 12:39:21;;;;;;;;;;;31.20;55.70;;;;;;5047053;28;19913;-73
2022/07/26 12:41:49;;;;;;;;;;;27.60;60.00;;;;;;5050696;28;19909;-75
2022/07/26 12:44:15;;;;;;;;;;;29.30;55.70;;;;;;5050048;28;20369;-76
2022/07/26 12:46:43;;;;;;;;;;;31.70;52.10;;;;;;5051170;28;19966;-75
2022/07/26 12:49:09;;;;;;;;;;;33.90;46.70;;;;;;5049135;28;20015;-75
2022/07/26 12:51:35;;;;;;;;;;;33.00;48.40;;;;;;5050393;28;19955;-75
2022/07/26 12:54:02;;;;;;;;;;;34.00;47.90;;;;;;5049850;28;19909;-72
2022/07/26 12:56:28;;;;;;;;;;;34.40;48.50;;;;;;5052828;28;20000;-75
2022/07/26 12:58:59;;;;;;;;;;;33.50;48.20;;;;;;5050455;28;19995;-75
2022/07/26 13:01:25;;;;;;;;;;;31.90;49.70;;;;;;5050243;28;20382;-75
2022/07/26 13:03:50;;;;;;;;;;;33.00;48.30;;;;;;5049736;28;19909;-75
2022/07/26 13:06:16;;;;;;;;;;;32.10;44.30;;;;;;5050131;28;19913;-75
2022/07/26 13:08:41;;;;;;;;;;;34.30;46.30;;;;;;5050110;28;19977;-75
2022/07/26 13:11:07;;;;;;;;;;;31.80;47.50;;;;;;5049629;28;19931;-75
2022/07/26 13:13:32;;;;;;;;;;;30.90;49.10;;;;;;5047846;28;19909;-74
2022/07/26 13:15:57;;;;;;;;;;;32.30;51.90;;;;;;5049945;28;19917;-75
2022/07/26 13:18:23;;;;;;;;;;;34.40;47.20;;;;;;5049719;28;20358;-75
2022/07/26 13:20:48;;;;;;;;;;;28.30;52.60;;;;;;5050254;28;19991;-75
2022/07/26 13:23:14;;;;;;;;;;;29.10;53.70;;;;;;5049374;28;19916;-75
2022/07/26 13:25:40;;;;;;;;;;;31.30;51.30;;;;;;5051599;28;19909;-75
2022/07/26 13:28:05;;;;;;;;;;;27.90;55.00;;;;;;5048004;28;19944;-75
2022/07/26 13:30:31;;;;;;;;;;;27.50;57.90;;;;;;5058848;28;20407;-75
2022/07/26 13:32:56;;;;;;;;;;;25.90;59.80;;;;;;5054445;28;20012;-75
2022/07/26 13:35:22;;;;;;;;;;;28.00;59.40;;;;;;5053093;28;20079;-76
2022/07/26 13:37:47;;;;;;;;;;;33.00;47.70;;;;;;5053907;28;20305;-76
2022/07/26 13:40:13;;;;;;;;;;;34.90;46.70;;;;;;5054197;28;19909;-73
2022/07/26 13:42:38;;;;;;;;;;;32.90;46.50;;;;;;5053995;28;19909;-76
2022/07/26 13:45:05;;;;;;;;;;;31.70;46.40;;;;;;5053631;28;19912;-75
2022/07/26 13:47:30;;;;;;;;;;;32.20;48.60;;;;;;5053493;28;19916;-75
2022/07/26 13:49:56;;;;;;;;;;;33.60;47.10;;;;;;5051117;28;19995;-75
2022/07/26 13:52:21;;;;;;;;;;;31.10;48.20;;;;;;5053243;28;19915;-74
2022/07/26 13:54:47;;;;;;;;;;;27.70;53.40;;;;;;5054001;28;19928;-75
2022/07/26 13:57:12;;;;;;;;;;;25.90;55.70;;;;;;5047688;28;19956;-75
2022/07/26 13:59:38;;;;;;;;;;;25.30;57.30;;;;;;5053709;28;19916;-74
2022/07/26 14:02:03;;;;;;;;;;;26.00;58.20;;;;;;5052622;28;20004;-72
2022/07/26 14:04:29;;;;;;;;;;;25.90;58.90;;;;;;5053564;28;19916;-75
2022/07/26 14:06:54;;;;;;;;;;;31.10;49.70;;;;;;5054352;28;19916;-75
2022/07/26 14:09:20;;;;;;;;;;;33.50;49.80;;;;;;5054123;28;19927;-75
2022/07/26 14:11:45;;;;;;;;;;;30.40;48.50;;;;;;5053937;28;20400;-75
2022/07/26 14:14:11;;;;;;;;;;;32.00;48.70;;;;;;5053687;28;19909;-75